Flight Track Log - Related Links

Times and Time Zones

All times are in EDT time to prevent confusion due to time zone crossing. See the N704MT flight status page for this flight to view local times or setup timezone preferences in your user account.

Time Position Orientation Groundspeed Altitude Reporting Facility
EDT Latitude Longitude Course Direction KTS MPH feet Rate Location/Type
Thu 01:01:56 PM 41.3297 -71.8403 260° West 75 86 800  Level Boston Center
Thu 01:02:50 PM 41.3172 -71.8653 236° Southwest 75 86 1,300 496 Climbing Boston Center
Thu 01:03:57 PM 41.3050 -71.8958 242° Southwest 77 89 1,800 422 Climbing Boston Center
Thu 01:04:58 PM 41.2947 -71.9069 219° Southwest 83 96 2,200 375 Climbing Boston Center
Thu 01:05:00 PM 41.3496 -71.8034 255° West  Level Estimated
Thu 01:06:00 PM 41.3496 -71.8034 262° West  Level Estimated
Thu 01:06:05 PM 41.2758 -71.9181 204° Southwest 78 90 2,600  Level Boston Center
Thu 01:07:00 PM 41.3496 -71.8034 260° West  Level Estimated
Thu 01:08:00 PM 41.2489 -71.9514 223° Southwest 73 84 3,000  Level Boston Center
Thu 01:09:01 PM 41.2322 -71.9653 212° Southwest 74 85 3,000 52 Level Boston Center
Thu 01:09:56 PM 41.2178 -71.9819 221° Southwest 72 83 3,100 55 Climbing Boston Center
Thu 01:10:50 PM 41.2033 -71.9958 216° Southwest 79 91 3,100  Level Boston Center
Thu 01:11:51 PM 41.1889 -72.0125 221° Southwest 70 81 3,100 -47 Level Boston Center
Thu 01:12:58 PM 41.1722 -72.0292 217° Southwest 72 83 3,000 -47 Descending Boston Center
Thu 01:13:59 PM 41.1575 -72.0458 220° Southwest 77 89 3,000 50 Level Boston Center
Thu 01:14:59 PM 41.1578 -72.0706 271° West 73 84 3,100  Climbing Boston Center
Thu 01:16:00 PM 41.1578 -72.0983 270° West 79 91 3,000  Descending Boston Center
Thu 01:17:01 PM 41.1558 -72.1286 265° West 77 89 3,100  Climbing Boston Center
Thu 01:18:02 PM 41.1539 -72.1644 266° West 83 96 3,000 -148 Descending Boston Center
Thu 01:19:03 PM 41.1831 -72.1589 North 115 132 2,800 -246 Descending Boston Center
Thu 01:20:04 PM 41.2122 -72.1447 20° North 114 131 2,500 -446 Descending Boston Center
Thu 01:21:04 PM 41.2392 -72.1256 28° Northeast 108 124 1,900 -496 Descending Boston Center
Thu 01:22:05 PM 41.2600 -72.1061 35° Northeast 97 112 1,500 -344 Descending Boston Center
Thu 01:23:06 PM 41.2767 -72.0894 37° Northeast 85 98 1,200 -344 Descending Boston Center
Thu 01:24:07 PM 41.2911 -72.0781 31° Northeast 75 86 800 -347 Descending Boston Center
Thu 01:25:07 PM 41.3097 -72.0642 29° Northeast 74 85 500 -149 Descending Boston Center
Thu 01:26:08 PM 41.3119 -72.0642 360° North 74 85 500 231 Level Boston Center
Thu 01:26:51 PM 41.3347 -72.0364 42° Northeast 41 47 900 558 Climbing Boston Center

Login

Don't have an account? Register now (free) for customized features, flight alerts, and more!